Blumenthal, Texas
Current Conditions -  °F | °C
As of 7:35 PM on Wednesday 26 Nov 2014 (Local Time) from KT82 Reporting Station
Clear Clear  
Wind Chill: 52°   Ceiling: Unl
Heat Index: 52°   Visibility: 10mi
Dew Point: 32°   Wind: 0mph
Humidity: 47%   Direction: NA
Pressure: 30.28"   Gusts: NA
Location:  30.3069°N, 98.8978°W
Report Text: KT82 270135Z AUTO 00000KT 10SM CLR 11/00 A3028 RMK AO2 T01101001
Loading
Personal Weather Stations






























Interactive Weather Map New forecast layout! Learn more

10-Day Weather Forecast

Advertisements
Track Severe Weather on mobile